createdAt,value
2018-05-15T00:00:01.638Z,82.58
2018-05-15T00:05:01.556Z,82.58
2018-05-15T00:10:01.642Z,83.01
2018-05-15T00:15:01.533Z,83.01
2018-05-15T00:20:01.672Z,83.23
2018-05-15T00:25:01.539Z,83.23
2018-05-15T00:30:01.645Z,82.84
2018-05-15T00:40:01.629Z,82.20
2018-05-15T00:45:01.522Z,82.20
2018-05-15T00:50:01.623Z,82.35
2018-05-15T00:55:01.666Z,82.35
2018-05-15T01:00:01.596Z,82.63
2018-05-15T01:10:01.660Z,83.20
2018-05-15T01:15:01.576Z,83.20
2018-05-15T01:20:01.652Z,83.32
2018-05-15T01:30:01.609Z,83.06
2018-05-15T01:45:01.589Z,83.39
2018-05-15T01:50:01.666Z,83.46
2018-05-15T01:55:01.546Z,83.46
2018-05-15T02:00:01.655Z,82.67
2018-05-15T02:05:01.707Z,82.67
2018-05-15T02:10:01.728Z,82.81
2018-05-15T02:15:01.674Z,82.81
2018-05-15T02:20:01.740Z,83.75
2018-05-15T02:30:01.651Z,83.54
2018-05-15T02:40:01.655Z,83.47
2018-05-15T02:45:01.750Z,83.47
2018-05-15T02:50:01.702Z,84.46
2018-05-15T02:55:01.693Z,84.46
2018-05-15T03:00:01.716Z,83.89
2018-05-15T03:05:01.688Z,83.89
2018-05-15T03:15:01.690Z,84.43
2018-05-15T03:25:01.690Z,84.20
2018-05-15T03:30:01.775Z,85.16
2018-05-15T03:45:01.814Z,83.12
2018-05-15T03:50:01.696Z,82.97
2018-05-15T04:00:01.697Z,84.35
2018-05-15T04:05:01.726Z,84.35
2018-05-15T04:10:01.693Z,85.91
2018-05-15T04:15:01.657Z,85.91
2018-05-15T04:20:01.686Z,85.03
2018-05-15T04:25:01.770Z,85.03
2018-05-15T04:30:01.682Z,84.11
2018-05-15T04:35:02.240Z,84.11
2018-05-15T04:40:01.677Z,82.90
2018-05-15T04:45:01.686Z,82.90
2018-05-15T04:50:01.752Z,81.94
2018-05-15T04:55:01.680Z,81.94
2018-05-15T05:01:01.673Z,79.53
2018-05-15T05:06:01.739Z,79.53
2018-05-15T05:11:01.732Z,78.52
2018-05-15T05:16:01.693Z,78.52
2018-05-15T05:21:02.106Z,76.57
2018-05-15T05:26:01.676Z,76.57
2018-05-15T05:31:01.684Z,76.23
2018-05-15T05:36:01.690Z,76.23
2018-05-15T05:41:01.681Z,75.74
2018-05-15T05:46:01.690Z,75.74
2018-05-15T05:52:01.970Z,73.44
2018-05-15T05:57:01.540Z,73.44
2018-05-15T06:02:01.554Z,72.37
2018-05-15T06:07:01.571Z,72.37
2018-05-15T06:12:01.697Z,72.04
2018-05-15T06:17:01.564Z,72.04
2018-05-15T06:22:01.684Z,67.23
2018-05-15T06:27:01.572Z,67.23
2018-05-15T06:32:01.570Z,67.23
2018-05-15T06:37:01.558Z,67.23
2018-05-15T06:42:01.627Z,65.93
2018-05-15T06:47:01.561Z,65.93
2018-05-15T06:52:01.614Z,65.03
2018-05-15T06:57:01.552Z,65.03
2018-05-15T07:02:01.563Z,62.19
2018-05-15T07:07:01.542Z,62.19
2018-05-15T07:12:01.661Z,61.83
2018-05-15T07:17:01.557Z,61.83
2018-05-15T07:22:01.709Z,61.79
2018-05-15T07:27:01.600Z,61.79
2018-05-15T07:32:01.556Z,61.49
2018-05-15T07:37:01.647Z,61.49
2018-05-15T07:42:02.806Z,57.94
2018-05-15T07:47:01.579Z,57.94
2018-05-15T07:57:01.730Z,59.18
2018-05-15T08:12:01.691Z,59.19
2018-05-15T08:17:01.556Z,59.19
2018-05-15T08:22:01.678Z,58.33
2018-05-15T08:27:01.543Z,58.33
2018-05-15T08:32:01.734Z,56.90
2018-05-15T08:37:01.565Z,56.90
2018-05-15T08:42:01.672Z,56.73
2018-05-15T08:47:01.559Z,56.73
2018-05-15T08:52:01.676Z,55.69
2018-05-15T08:57:01.546Z,55.69
2018-05-15T09:02:01.544Z,55.46
2018-05-15T09:07:01.580Z,55.46
2018-05-15T09:12:01.696Z,53.93
2018-05-15T09:22:01.598Z,53.41
2018-05-15T09:27:01.636Z,53.41
2018-05-15T09:32:01.535Z,52.41
2018-05-15T09:37:01.620Z,52.41
2018-05-15T09:42:01.616Z,54.84
2018-05-15T09:52:01.701Z,53.18
2018-05-15T10:07:01.548Z,53.12
2018-05-15T10:12:01.627Z,55.54
2018-05-15T10:22:01.602Z,53.43
2018-05-15T10:37:01.548Z,49.91
2018-05-15T10:42:01.676Z,51.64
2018-05-15T10:47:01.542Z,51.64
2018-05-15T10:57:01.668Z,50.31
2018-05-15T11:02:01.554Z,49.68
2018-05-15T11:07:01.531Z,49.68
2018-05-15T11:17:01.367Z,49.30
2018-05-15T11:22:01.702Z,47.55
2018-05-15T11:27:01.693Z,47.55
2018-05-15T11:32:01.596Z,47.09
2018-05-15T11:37:01.582Z,47.09
2018-05-15T11:42:01.646Z,44.39
2018-05-15T11:47:01.582Z,44.39
2018-05-15T11:52:05.730Z,46.89
2018-05-15T11:58:01.774Z,46.89
2018-05-15T12:03:01.575Z,44.73
2018-05-15T12:08:01.890Z,44.73
2018-05-15T12:13:01.609Z,44.50
2018-05-15T12:28:01.778Z,43.89
2018-05-15T12:43:01.608Z,42.90
2018-05-15T12:58:01.676Z,43.06
2018-05-15T13:03:01.575Z,42.17
2018-05-15T13:14:01.715Z,40.82
2018-05-15T13:24:01.631Z,40.14
2018-05-15T13:29:01.769Z,40.14
2018-05-15T13:34:01.570Z,39.38
2018-05-15T13:39:01.677Z,39.38
2018-05-15T13:44:01.537Z,39.36
2018-05-15T13:49:01.689Z,39.36
2018-05-15T13:54:01.559Z,39.10
2018-05-15T14:04:01.412Z,38.82
2018-05-15T14:09:01.722Z,38.82
2018-05-15T14:19:01.483Z,39.49
2018-05-15T14:34:01.435Z,36.28
2018-05-15T14:39:02.596Z,36.28
2018-05-15T14:44:01.651Z,35.65
2018-05-15T14:54:01.719Z,35.13
2018-05-15T14:59:01.647Z,35.13
2018-05-15T15:04:01.587Z,36.10
2018-05-15T15:09:01.701Z,36.10
2018-05-15T15:19:01.525Z,35.13
2018-05-15T15:24:01.607Z,35.89
2018-05-15T15:39:01.608Z,34.86
2018-05-15T15:54:01.662Z,38.24
2018-05-15T15:59:01.661Z,38.24
2018-05-15T16:04:01.897Z,36.72
2018-05-15T16:09:01.619Z,36.72
2018-05-15T16:14:01.537Z,37.29
2018-05-15T16:19:01.674Z,37.29
2018-05-15T16:24:01.607Z,41.02
2018-05-15T16:29:01.662Z,41.02
2018-05-15T16:34:01.685Z,40.40
2018-05-15T16:39:01.627Z,40.40
2018-05-15T16:44:01.668Z,41.69
2018-05-15T16:49:01.724Z,41.69
2018-05-15T17:04:01.417Z,43.62
2018-05-15T17:14:01.501Z,43.63
2018-05-15T17:24:01.552Z,46.62
2018-05-15T17:29:01.507Z,46.62
2018-05-15T17:35:01.551Z,46.12
2018-05-15T17:40:01.538Z,46.25
2018-05-15T17:45:01.535Z,46.25
2018-05-15T17:50:01.526Z,48.07
2018-05-15T17:55:01.537Z,48.07
2018-05-15T18:00:02.429Z,49.16
2018-05-15T18:05:01.528Z,49.16
2018-05-15T18:10:01.599Z,50.47
2018-05-15T18:15:01.620Z,50.47
2018-05-15T18:20:01.568Z,52.99
2018-05-15T18:25:01.508Z,52.99
2018-05-15T18:30:01.570Z,54.83
2018-05-15T18:35:01.569Z,54.83
2018-05-15T18:40:01.555Z,55.65
2018-05-15T18:45:01.541Z,55.65
2018-05-15T19:00:01.575Z,57.48
2018-05-15T19:10:01.568Z,60.13
2018-05-15T19:15:01.548Z,60.13
2018-05-15T19:20:01.531Z,59.70
2018-05-15T19:25:01.522Z,59.70
2018-05-15T19:30:01.551Z,58.76
2018-05-15T19:35:01.500Z,58.76
2018-05-15T19:40:01.485Z,60.27
2018-05-15T19:45:01.694Z,60.27
2018-05-15T19:55:01.562Z,60.44
2018-05-15T20:00:01.509Z,61.41
2018-05-15T20:05:01.514Z,61.41
2018-05-15T20:10:01.524Z,60.31
2018-05-15T20:15:01.539Z,60.31
2018-05-15T20:20:01.505Z,58.73
2018-05-15T20:25:01.537Z,58.73
2018-05-15T20:30:01.475Z,56.96
2018-05-15T20:35:02.505Z,56.96
2018-05-15T20:40:01.535Z,56.70
2018-05-15T20:45:01.504Z,56.70
2018-05-15T20:50:01.504Z,57.25
2018-05-15T20:55:01.556Z,57.25
2018-05-15T21:00:01.625Z,54.42
2018-05-15T21:05:01.617Z,54.42
2018-05-15T21:15:01.846Z,54.79
2018-05-15T21:20:01.601Z,56.69
2018-05-15T21:30:01.668Z,53.99
2018-05-15T21:40:01.701Z,56.96
2018-05-15T21:45:01.574Z,56.96
2018-05-15T21:55:01.607Z,54.56
2018-05-15T22:00:01.812Z,55.11
2018-05-15T22:05:01.584Z,55.11
2018-05-15T22:15:01.690Z,55.62
2018-05-15T22:25:01.643Z,56.00
2018-05-15T22:30:02.596Z,55.63
2018-05-15T22:40:01.676Z,56.96
2018-05-15T22:45:01.631Z,56.96
2018-05-15T22:50:01.665Z,61.71
2018-05-15T22:55:01.572Z,61.71
2018-05-15T23:00:01.667Z,62.96
2018-05-15T23:15:01.588Z,63.39
2018-05-15T23:20:01.604Z,62.51
2018-05-15T23:30:01.724Z,62.93
2018-05-15T23:40:01.634Z,63.37
2018-05-15T23:45:01.570Z,63.37
2018-05-15T23:50:02.664Z,66.48
